createdAt,value
2022-09-23T00:00:02.230Z,495.11
2022-09-23T00:00:12.233Z,495.11
2022-09-23T00:00:22.239Z,495.16
2022-09-23T00:00:32.234Z,495.23
2022-09-23T00:00:42.233Z,495.21
2022-09-23T00:00:52.236Z,495.27
2022-09-23T00:01:02.300Z,495.29
2022-09-23T00:01:12.268Z,495.23
2022-09-23T00:01:22.391Z,495.18
2022-09-23T00:01:32.366Z,495.19
2022-09-23T00:01:42.330Z,495.21
2022-09-23T00:01:52.311Z,495.22
2022-09-23T00:02:02.314Z,495.21
2022-09-23T00:02:12.275Z,495.22
2022-09-23T00:02:22.265Z,495.26
2022-09-23T00:02:32.295Z,495.22
2022-09-23T00:02:42.315Z,495.23
2022-09-23T00:02:52.340Z,495.25
2022-09-23T00:03:02.326Z,495.26
2022-09-23T00:03:12.245Z,495.27
2022-09-23T00:03:22.247Z,495.28
2022-09-23T00:03:32.249Z,495.24
2022-09-23T00:03:42.250Z,495.24
2022-09-23T00:03:52.238Z,495.22
2022-09-23T00:04:02.250Z,495.23
2022-09-23T00:04:12.251Z,495.21
2022-09-23T00:04:22.251Z,495.22
2022-09-23T00:04:32.253Z,495.27
2022-09-23T00:04:42.254Z,495.26
2022-09-23T00:04:52.253Z,495.23
2022-09-23T00:05:02.255Z,495.22
2022-09-23T00:05:12.255Z,495.21
2022-09-23T00:05:22.257Z,495.17
2022-09-23T00:05:32.259Z,495.11
2022-09-23T00:05:42.257Z,495.19
2022-09-23T00:05:52.259Z,495.19
2022-09-23T00:06:02.260Z,495.12
2022-09-23T00:06:12.262Z,495.09
2022-09-23T00:06:22.273Z,495.16
2022-09-23T00:06:32.290Z,495.16
2022-09-23T00:06:42.262Z,495.15
2022-09-23T00:06:52.262Z,495.12
2022-09-23T00:07:02.265Z,495.10
2022-09-23T00:07:12.265Z,495.12
2022-09-23T00:07:22.265Z,495.18
2022-09-23T00:07:32.270Z,495.18
2022-09-23T00:07:42.267Z,495.18
2022-09-23T00:07:52.268Z,495.20
2022-09-23T00:08:02.266Z,495.22
2022-09-23T00:08:12.266Z,495.24
2022-09-23T00:08:22.268Z,495.20
2022-09-23T00:08:32.272Z,495.23
2022-09-23T00:08:42.279Z,495.21
2022-09-23T00:08:52.400Z,495.22
2022-09-23T00:09:02.279Z,495.28
2022-09-23T00:09:12.280Z,495.32
2022-09-23T00:09:22.281Z,495.30
2022-09-23T00:09:32.279Z,495.32
2022-09-23T00:09:42.280Z,495.26
2022-09-23T00:09:52.280Z,495.30
2022-09-23T00:10:02.280Z,495.30
2022-09-23T00:10:12.280Z,495.30
2022-09-23T00:10:22.280Z,495.34
2022-09-23T00:10:32.278Z,495.34
2022-09-23T00:10:42.281Z,495.31
2022-09-23T00:10:52.281Z,495.28
2022-09-23T00:11:02.282Z,495.34
2022-09-23T00:11:12.284Z,495.32
2022-09-23T00:11:22.282Z,495.29
2022-09-23T00:11:32.283Z,495.25
2022-09-23T00:11:42.289Z,495.27
2022-09-23T00:11:52.286Z,495.32
2022-09-23T00:12:05.664Z,495.25
2022-09-23T00:12:13.293Z,495.27
2022-09-23T00:12:22.272Z,495.27
2022-09-23T00:12:32.291Z,495.26
2022-09-23T00:12:42.288Z,495.27
2022-09-23T00:12:52.289Z,495.35
2022-09-23T00:13:02.292Z,495.40
2022-09-23T00:13:12.291Z,495.38
2022-09-23T00:13:22.291Z,495.38
2022-09-23T00:13:32.295Z,495.32
2022-09-23T00:13:42.301Z,495.32
2022-09-23T00:13:52.954Z,495.42
2022-09-23T00:14:02.295Z,495.46
2022-09-23T00:14:12.297Z,495.44
2022-09-23T00:14:22.296Z,495.47
2022-09-23T00:14:32.324Z,495.47
2022-09-23T00:14:42.418Z,495.43
2022-09-23T00:14:52.300Z,495.42
2022-09-23T00:15:02.300Z,495.47
2022-09-23T00:15:12.300Z,495.42
2022-09-23T00:15:22.302Z,495.44
2022-09-23T00:15:32.299Z,495.52
2022-09-23T00:15:42.301Z,495.51
2022-09-23T00:15:52.306Z,495.55
2022-09-23T00:16:02.303Z,495.56
2022-09-23T00:16:12.306Z,495.58
2022-09-23T00:16:22.341Z,495.59
2022-09-23T00:16:32.339Z,495.65
2022-09-23T00:16:42.352Z,495.61
2022-09-23T00:16:52.340Z,495.61
2022-09-23T00:17:02.340Z,495.71
2022-09-23T00:17:12.352Z,495.75
2022-09-23T00:17:22.309Z,495.76
2022-09-23T00:17:32.313Z,495.75
2022-09-23T00:17:42.314Z,495.76
2022-09-23T00:17:52.311Z,495.75
2022-09-23T00:18:02.313Z,495.76
2022-09-23T00:18:12.313Z,495.77
2022-09-23T00:18:22.316Z,495.75
2022-09-23T00:18:32.344Z,495.73
2022-09-23T00:18:42.319Z,495.75
2022-09-23T00:18:52.957Z,495.81
2022-09-23T00:19:02.317Z,495.81
2022-09-23T00:19:12.320Z,495.85
2022-09-23T00:19:22.317Z,495.87
2022-09-23T00:19:32.319Z,495.86
2022-09-23T00:19:42.317Z,495.88
2022-09-23T00:19:52.321Z,495.90
2022-09-23T00:20:02.320Z,495.91
2022-09-23T00:20:12.322Z,495.92
2022-09-23T00:20:22.324Z,495.93
2022-09-23T00:20:32.323Z,495.94
2022-09-23T00:20:42.322Z,495.91
2022-09-23T00:20:52.308Z,495.93
2022-09-23T00:21:02.327Z,495.89
2022-09-23T00:21:12.325Z,495.86
2022-09-23T00:21:22.329Z,495.92
2022-09-23T00:21:32.314Z,495.93
2022-09-23T00:21:42.330Z,495.87
2022-09-23T00:21:52.331Z,495.95
2022-09-23T00:22:02.333Z,495.91
2022-09-23T00:22:12.331Z,495.95
2022-09-23T00:22:22.377Z,495.92
2022-09-23T00:22:32.335Z,495.90
2022-09-23T00:22:42.335Z,495.90
2022-09-23T00:22:52.336Z,495.84
2022-09-23T00:23:02.336Z,495.85
2022-09-23T00:23:12.337Z,495.91
2022-09-23T00:23:22.326Z,495.94
2022-09-23T00:23:32.345Z,495.96
2022-09-23T00:23:42.345Z,496.03
2022-09-23T00:23:52.955Z,496.05
2022-09-23T00:24:02.345Z,495.97
2022-09-23T00:24:12.346Z,495.92
2022-09-23T00:24:22.348Z,495.98
2022-09-23T00:24:32.378Z,496.00
2022-09-23T00:24:42.346Z,496.00
2022-09-23T00:24:52.347Z,495.95
2022-09-23T00:25:02.353Z,495.94
2022-09-23T00:25:12.349Z,496.00
2022-09-23T00:25:22.353Z,496.01
2022-09-23T00:25:32.352Z,496.01
2022-09-23T00:25:42.348Z,496.01
2022-09-23T00:25:52.351Z,496.02
2022-09-23T00:26:02.355Z,496.02
2022-09-23T00:26:12.351Z,496.04
2022-09-23T00:26:22.353Z,496.05
2022-09-23T00:26:32.352Z,496.10
2022-09-23T00:26:42.354Z,496.14
2022-09-23T00:26:52.351Z,496.13
2022-09-23T00:27:02.352Z,496.12
2022-09-23T00:27:12.354Z,496.10
2022-09-23T00:27:22.343Z,496.10
2022-09-23T00:27:32.357Z,496.10
2022-09-23T00:27:42.360Z,496.13
2022-09-23T00:27:52.362Z,496.15
2022-09-23T00:28:02.361Z,496.16
2022-09-23T00:28:12.363Z,496.19
2022-09-23T00:28:22.361Z,496.20
2022-09-23T00:28:32.346Z,496.20
2022-09-23T00:28:42.378Z,496.23
2022-09-23T00:28:52.957Z,496.24
2022-09-23T00:29:02.395Z,496.17
2022-09-23T00:29:12.353Z,496.24
2022-09-23T00:29:22.367Z,496.26
2022-09-23T00:29:32.370Z,496.22
2022-09-23T00:29:42.375Z,496.33
2022-09-23T00:29:52.373Z,496.32
2022-09-23T00:30:02.375Z,496.32
2022-09-23T00:30:12.362Z,496.32
2022-09-23T00:30:22.530Z,496.33
2022-09-23T00:30:32.417Z,496.43
2022-09-23T00:30:42.440Z,496.42
2022-09-23T00:30:52.414Z,496.47
2022-09-23T00:31:02.469Z,496.49
2022-09-23T00:31:12.437Z,496.50
2022-09-23T00:31:22.509Z,496.46
2022-09-23T00:31:32.379Z,496.53
2022-09-23T00:31:42.381Z,496.54
2022-09-23T00:31:52.386Z,496.55
2022-09-23T00:32:02.382Z,496.58
2022-09-23T00:32:12.382Z,496.62
2022-09-23T00:32:22.384Z,496.58
2022-09-23T00:32:32.405Z,496.59
2022-09-23T00:32:42.389Z,496.60
2022-09-23T00:32:52.388Z,496.63
2022-09-23T00:33:02.388Z,496.64
2022-09-23T00:33:12.388Z,496.63
2022-09-23T00:33:22.397Z,496.61
2022-09-23T00:33:32.391Z,496.63
2022-09-23T00:33:42.403Z,496.68
2022-09-23T00:33:52.943Z,496.62
2022-09-23T00:34:02.388Z,496.65
2022-09-23T00:34:12.390Z,496.63
2022-09-23T00:34:22.392Z,496.61
2022-09-23T00:34:32.401Z,496.64
2022-09-23T00:34:42.399Z,496.60
2022-09-23T00:34:52.395Z,496.65
2022-09-23T00:35:02.395Z,496.64
2022-09-23T00:35:12.395Z,496.69
2022-09-23T00:35:22.395Z,496.67
2022-09-23T00:35:32.422Z,496.68
2022-09-23T00:35:42.397Z,496.66
2022-09-23T00:35:52.398Z,496.74
2022-09-23T00:36:02.411Z,496.74
2022-09-23T00:36:12.387Z,496.74
2022-09-23T00:36:22.401Z,496.69
2022-09-23T00:36:32.420Z,496.70
2022-09-23T00:36:42.401Z,496.70
2022-09-23T00:36:52.404Z,496.69
2022-09-23T00:37:02.406Z,496.75
2022-09-23T00:37:12.405Z,496.73
2022-09-23T00:37:22.404Z,496.76
2022-09-23T00:37:32.405Z,496.73
2022-09-23T00:37:42.406Z,496.76
2022-09-23T00:37:52.409Z,496.78
2022-09-23T00:38:02.413Z,496.79
2022-09-23T00:38:12.413Z,496.79
2022-09-23T00:38:22.412Z,496.78
2022-09-23T00:38:32.411Z,496.81
2022-09-23T00:38:42.478Z,496.82
2022-09-23T00:38:52.420Z,496.81
2022-09-23T00:39:04.238Z,496.83
2022-09-23T00:39:12.415Z,496.88
2022-09-23T00:39:22.414Z,496.84
2022-09-23T00:39:32.417Z,496.84
2022-09-23T00:39:42.418Z,496.89
2022-09-23T00:39:52.417Z,496.90
2022-09-23T00:40:02.596Z,496.94
2022-09-23T00:40:12.448Z,496.91
2022-09-23T00:40:22.476Z,496.87
2022-09-23T00:40:32.475Z,496.91
2022-09-23T00:40:42.472Z,496.91
2022-09-23T00:40:52.488Z,496.87
2022-09-23T00:41:02.426Z,496.91
2022-09-23T00:41:12.424Z,496.92
2022-09-23T00:41:22.428Z,496.96
2022-09-23T00:41:32.431Z,496.97
2022-09-23T00:41:42.429Z,497.02
2022-09-23T00:41:52.430Z,496.99
2022-09-23T00:42:02.436Z,496.95
2022-09-23T00:42:12.432Z,496.96
2022-09-23T00:42:22.438Z,496.93
2022-09-23T00:42:32.440Z,496.95
2022-09-23T00:42:42.434Z,496.98
2022-09-23T00:42:52.434Z,496.96
2022-09-23T00:43:02.437Z,496.97
2022-09-23T00:43:12.436Z,497.05
2022-09-23T00:43:22.442Z,497.06
2022-09-23T00:43:32.441Z,497.08
2022-09-23T00:43:42.442Z,497.06
2022-09-23T00:43:52.445Z,497.11
2022-09-23T00:44:02.441Z,497.14
2022-09-23T00:44:12.443Z,497.10
2022-09-23T00:44:22.448Z,497.18
2022-09-23T00:44:32.445Z,497.22
2022-09-23T00:44:42.447Z,497.21
2022-09-23T00:44:52.446Z,497.21
2022-09-23T00:45:02.457Z,497.22
2022-09-23T00:45:12.449Z,497.26
2022-09-23T00:45:22.447Z,497.29
2022-09-23T00:45:32.451Z,497.23
2022-09-23T00:45:42.496Z,497.27
2022-09-23T00:45:52.523Z,497.28
2022-09-23T00:46:02.510Z,497.29
2022-09-23T00:46:12.480Z,497.34
2022-09-23T00:46:22.521Z,497.39
2022-09-23T00:46:32.485Z,497.39
2022-09-23T00:46:42.455Z,497.39
2022-09-23T00:46:52.451Z,497.46
2022-09-23T00:47:02.452Z,497.57
2022-09-23T00:47:12.455Z,497.61
2022-09-23T00:47:22.456Z,497.55
2022-09-23T00:47:32.455Z,497.57
2022-09-23T00:47:42.465Z,497.57
2022-09-23T00:47:52.458Z,497.60
2022-09-23T00:48:02.458Z,497.66
2022-09-23T00:48:12.459Z,497.68
2022-09-23T00:48:22.461Z,497.64
2022-09-23T00:48:32.461Z,497.69
2022-09-23T00:48:42.475Z,497.71
2022-09-23T00:48:52.588Z,497.74
2022-09-23T00:49:02.461Z,497.72
2022-09-23T00:49:12.461Z,497.77
2022-09-23T00:49:22.463Z,497.78
2022-09-23T00:49:32.469Z,497.74
2022-09-23T00:49:42.490Z,497.76
2022-09-23T00:49:52.465Z,497.76
2022-09-23T00:50:02.465Z,497.85
2022-09-23T00:50:12.465Z,497.82
2022-09-23T00:50:22.466Z,497.84
2022-09-23T00:50:32.473Z,497.85
2022-09-23T00:50:42.483Z,497.89
2022-09-23T00:50:52.472Z,497.92
2022-09-23T00:51:02.468Z,497.92
2022-09-23T00:51:12.471Z,497.91
2022-09-23T00:51:22.470Z,497.90
2022-09-23T00:51:32.455Z,497.89
2022-09-23T00:51:42.479Z,497.90
2022-09-23T00:51:52.470Z,497.89
2022-09-23T00:52:02.472Z,497.90
2022-09-23T00:52:12.475Z,497.97
2022-09-23T00:52:22.501Z,497.99
2022-09-23T00:52:32.474Z,497.99
2022-09-23T00:52:42.479Z,498.01
2022-09-23T00:52:52.480Z,497.99
2022-09-23T00:53:02.477Z,498.00
2022-09-23T00:53:12.476Z,498.01
2022-09-23T00:53:22.498Z,498.01
2022-09-23T00:53:32.477Z,498.06
2022-09-23T00:53:42.503Z,498.02
2022-09-23T00:53:52.613Z,498.00
2022-09-23T00:54:02.467Z,498.01
2022-09-23T00:54:12.483Z,497.98
2022-09-23T00:54:22.498Z,497.99
2022-09-23T00:54:32.485Z,498.05
2022-09-23T00:54:42.502Z,498.03
2022-09-23T00:54:52.486Z,498.07
2022-09-23T00:55:02.489Z,498.04
2022-09-23T00:55:12.469Z,498.05
2022-09-23T00:55:22.493Z,498.06
2022-09-23T00:55:32.490Z,498.07
2022-09-23T00:55:42.493Z,498.07
2022-09-23T00:55:52.492Z,498.05
2022-09-23T00:56:02.491Z,498.06
2022-09-23T00:56:12.490Z,498.11
2022-09-23T00:56:22.490Z,498.10
2022-09-23T00:56:32.490Z,498.08
2022-09-23T00:56:42.496Z,498.11
2022-09-23T00:56:52.492Z,498.05
2022-09-23T00:57:02.492Z,498.06
2022-09-23T00:57:12.478Z,498.07
2022-09-23T00:57:22.496Z,498.05
2022-09-23T00:57:32.481Z,498.04
2022-09-23T00:57:42.498Z,498.01
2022-09-23T00:57:52.499Z,498.00
2022-09-23T00:58:02.501Z,498.04
2022-09-23T00:58:12.502Z,498.06
2022-09-23T00:58:22.515Z,498.05
2022-09-23T00:58:32.489Z,498.05
2022-09-23T00:58:42.488Z,498.05
2022-09-23T00:58:52.970Z,498.12
2022-09-23T00:59:02.501Z,498.13
2022-09-23T00:59:12.505Z,498.11
2022-09-23T00:59:22.504Z,498.15
2022-09-23T00:59:32.504Z,498.15
2022-09-23T00:59:42.508Z,498.20
2022-09-23T00:59:52.506Z,498.20
2022-09-23T01:00:02.505Z,498.17
2022-09-23T01:00:12.600Z,498.19
2022-09-23T01:00:22.538Z,498.20
2022-09-23T01:00:32.492Z,498.20
2022-09-23T01:00:42.508Z,498.20
2022-09-23T01:00:52.566Z,498.23
2022-09-23T01:01:02.582Z,498.25
2022-09-23T01:01:12.526Z,498.30
2022-09-23T01:01:22.595Z,498.31
2022-09-23T01:01:32.567Z,498.33
2022-09-23T01:01:42.590Z,498.35
2022-09-23T01:01:52.513Z,498.37
2022-09-23T01:02:02.566Z,498.43
2022-09-23T01:02:12.555Z,498.49
2022-09-23T01:02:22.615Z,498.51
2022-09-23T01:02:32.531Z,498.49
2022-09-23T01:02:42.542Z,498.52
2022-09-23T01:02:52.583Z,498.54
2022-09-23T01:03:02.520Z,498.54
2022-09-23T01:03:12.524Z,498.56
2022-09-23T01:03:22.524Z,498.60
2022-09-23T01:03:32.521Z,498.63
2022-09-23T01:03:42.526Z,498.62
2022-09-23T01:03:52.976Z,498.67
2022-09-23T01:04:02.524Z,498.69
2022-09-23T01:04:12.525Z,498.70
2022-09-23T01:04:22.527Z,498.68
2022-09-23T01:04:32.528Z,498.69
2022-09-23T01:04:42.527Z,498.73
2022-09-23T01:04:52.531Z,498.75
2022-09-23T01:05:02.531Z,498.78
2022-09-23T01:05:12.530Z,498.75
2022-09-23T01:05:22.533Z,498.81
2022-09-23T01:05:32.533Z,498.79
2022-09-23T01:05:42.536Z,498.81
2022-09-23T01:05:52.536Z,498.78
2022-09-23T01:06:02.537Z,498.88
2022-09-23T01:06:12.539Z,498.88
2022-09-23T01:06:22.540Z,498.85
2022-09-23T01:06:32.541Z,498.89
2022-09-23T01:06:42.541Z,498.92
2022-09-23T01:06:52.543Z,498.92
2022-09-23T01:07:02.542Z,498.92
2022-09-23T01:07:12.543Z,498.96
2022-09-23T01:07:22.544Z,499.00
2022-09-23T01:07:32.544Z,499.02
2022-09-23T01:07:42.544Z,498.96
2022-09-23T01:07:52.547Z,498.99
2022-09-23T01:08:02.548Z,499.00
2022-09-23T01:08:12.552Z,499.03
2022-09-23T01:08:22.550Z,499.04
2022-09-23T01:08:32.554Z,499.12
2022-09-23T01:08:42.552Z,499.12
2022-09-23T01:08:52.975Z,499.12
2022-09-23T01:09:02.655Z,499.14
2022-09-23T01:09:12.557Z,499.16
2022-09-23T01:09:22.558Z,499.11
2022-09-23T01:09:32.563Z,499.17
2022-09-23T01:09:42.559Z,499.23
2022-09-23T01:09:52.561Z,499.26
2022-09-23T01:10:02.558Z,499.29
2022-09-23T01:10:12.560Z,499.27
2022-09-23T01:10:22.563Z,499.25
2022-09-23T01:10:32.561Z,499.29
2022-09-23T01:10:42.563Z,499.30
2022-09-23T01:10:52.566Z,499.33
2022-09-23T01:11:02.566Z,499.35
2022-09-23T01:11:12.566Z,499.31
2022-09-23T01:11:22.565Z,499.34
2022-09-23T01:11:32.568Z,499.39
2022-09-23T01:11:42.567Z,499.35
2022-09-23T01:11:52.567Z,499.37
2022-09-23T01:12:02.570Z,499.41
2022-09-23T01:12:12.573Z,499.42
2022-09-23T01:12:22.571Z,499.45
2022-09-23T01:12:32.570Z,499.45
2022-09-23T01:12:42.571Z,499.45
2022-09-23T01:12:52.581Z,499.46
2022-09-23T01:13:02.570Z,499.49
2022-09-23T01:13:12.573Z,499.53
2022-09-23T01:13:22.573Z,499.55
2022-09-23T01:13:32.575Z,499.52
2022-09-23T01:13:42.578Z,499.52
2022-09-23T01:13:52.989Z,499.56
2022-09-23T01:14:02.578Z,499.58
2022-09-23T01:14:12.580Z,499.61
2022-09-23T01:14:22.575Z,499.65
2022-09-23T01:14:32.577Z,499.66
2022-09-23T01:14:42.579Z,499.77
2022-09-23T01:14:52.579Z,499.80
2022-09-23T01:15:02.585Z,499.80
2022-09-23T01:15:12.582Z,499.82
2022-09-23T01:15:22.584Z,499.86
2022-09-23T01:15:32.582Z,499.89
2022-09-23T01:15:42.585Z,499.92
2022-09-23T01:15:52.592Z,499.92
2022-09-23T01:16:02.586Z,499.90
2022-09-23T01:16:12.648Z,499.88
2022-09-23T01:16:22.674Z,499.87
2022-09-23T01:16:32.624Z,499.95
2022-09-23T01:16:42.654Z,499.91
2022-09-23T01:16:52.632Z,499.95
2022-09-23T01:17:02.622Z,499.99
2022-09-23T01:17:12.596Z,500.00
2022-09-23T01:17:22.593Z,500.07
2022-09-23T01:17:32.594Z,500.00
2022-09-23T01:17:42.596Z,500.00
2022-09-23T01:17:52.595Z,500.05
2022-09-23T01:18:02.606Z,500.05
2022-09-23T01:18:12.597Z,500.09
2022-09-23T01:18:22.596Z,500.04
2022-09-23T01:18:32.595Z,500.03
2022-09-23T01:18:42.599Z,500.07
2022-09-23T01:18:52.618Z,500.08
2022-09-23T01:19:02.602Z,500.06
2022-09-23T01:19:12.602Z,500.11
2022-09-23T01:19:22.603Z,500.09
2022-09-23T01:19:32.604Z,500.11
2022-09-23T01:19:42.605Z,500.11
2022-09-23T01:19:52.590Z,500.07
2022-09-23T01:20:02.606Z,500.10
2022-09-23T01:20:12.616Z,500.06
2022-09-23T01:20:22.607Z,500.12
2022-09-23T01:20:32.612Z,500.15
2022-09-23T01:20:42.612Z,500.17
2022-09-23T01:20:52.614Z,500.11
2022-09-23T01:21:02.615Z,500.11
2022-09-23T01:21:12.611Z,500.14
2022-09-23T01:21:22.617Z,500.18
2022-09-23T01:21:32.614Z,500.14
2022-09-23T01:21:42.615Z,500.17
2022-09-23T01:21:52.620Z,500.22
2022-09-23T01:22:02.604Z,500.22
2022-09-23T01:22:12.601Z,500.22
2022-09-23T01:22:22.617Z,500.21
2022-09-23T01:22:32.618Z,500.23
2022-09-23T01:22:42.620Z,500.25
2022-09-23T01:22:52.620Z,500.26
2022-09-23T01:23:02.622Z,500.29
2022-09-23T01:23:12.626Z,500.30
2022-09-23T01:23:22.622Z,500.33
2022-09-23T01:23:32.608Z,500.33
2022-09-23T01:23:42.619Z,500.34
2022-09-23T01:23:52.628Z,500.38
2022-09-23T01:24:02.673Z,500.45
2022-09-23T01:24:12.652Z,500.48
2022-09-23T01:24:22.626Z,500.53
2022-09-23T01:24:32.627Z,500.58
2022-09-23T01:24:42.629Z,500.54
2022-09-23T01:24:52.630Z,500.57
2022-09-23T01:25:02.630Z,500.65
2022-09-23T01:25:12.630Z,500.71
2022-09-23T01:25:22.631Z,500.73
2022-09-23T01:25:32.632Z,500.69
2022-09-23T01:25:42.632Z,500.73
2022-09-23T01:25:52.636Z,500.76
2022-09-23T01:26:02.633Z,500.76
2022-09-23T01:26:12.633Z,500.80
2022-09-23T01:26:22.753Z,500.82
2022-09-23T01:26:32.637Z,500.85
2022-09-23T01:26:42.636Z,500.88
2022-09-23T01:26:52.636Z,500.88
2022-09-23T01:27:02.638Z,500.89
2022-09-23T01:27:13.644Z,500.90
2022-09-23T01:27:22.639Z,501.02
2022-09-23T01:27:32.639Z,501.02
2022-09-23T01:27:42.641Z,500.98
2022-09-23T01:27:52.646Z,501.01
2022-09-23T01:28:02.643Z,501.10
2022-09-23T01:28:12.647Z,501.09
2022-09-23T01:28:22.646Z,501.14
2022-09-23T01:28:32.646Z,501.14
2022-09-23T01:28:42.645Z,501.14
2022-09-23T01:28:52.708Z,501.20
2022-09-23T01:29:02.651Z,501.23
2022-09-23T01:29:12.652Z,501.26
2022-09-23T01:29:22.649Z,501.26
2022-09-23T01:29:32.651Z,501.27
2022-09-23T01:29:42.651Z,501.28
2022-09-23T01:29:52.656Z,501.30
2022-09-23T01:30:02.655Z,501.30
2022-09-23T01:30:12.653Z,501.35
2022-09-23T01:30:22.655Z,501.36
2022-09-23T01:30:32.721Z,501.34
2022-09-23T01:30:42.695Z,501.41
2022-09-23T01:30:52.676Z,501.40
2022-09-23T01:31:02.719Z,501.40
2022-09-23T01:31:12.727Z,501.38
2022-09-23T01:31:22.783Z,501.39
2022-09-23T01:31:32.659Z,501.41
2022-09-23T01:31:42.662Z,501.43
2022-09-23T01:31:52.692Z,501.46
2022-09-23T01:32:02.687Z,501.43
2022-09-23T01:32:12.662Z,501.45
2022-09-23T01:32:22.659Z,501.48
2022-09-23T01:32:32.668Z,501.50
2022-09-23T01:32:42.663Z,501.55
2022-09-23T01:32:52.664Z,501.59
2022-09-23T01:33:02.666Z,501.56
2022-09-23T01:33:12.666Z,501.56
2022-09-23T01:33:22.666Z,501.60
2022-09-23T01:33:32.667Z,501.59
2022-09-23T01:33:42.670Z,501.63
2022-09-23T01:33:52.993Z,501.66
2022-09-23T01:34:02.672Z,501.68
2022-09-23T01:34:12.673Z,501.70
2022-09-23T01:34:22.674Z,501.69
2022-09-23T01:34:32.671Z,501.69
2022-09-23T01:34:42.689Z,501.68
2022-09-23T01:34:52.674Z,501.69
2022-09-23T01:35:02.657Z,501.66
2022-09-23T01:35:12.672Z,501.66
2022-09-23T01:35:22.676Z,501.73
2022-09-23T01:35:32.677Z,501.73
2022-09-23T01:35:42.677Z,501.71
2022-09-23T01:35:52.678Z,501.73
2022-09-23T01:36:02.678Z,501.70
2022-09-23T01:36:12.664Z,501.70
2022-09-23T01:36:22.683Z,501.70
2022-09-23T01:36:32.678Z,501.73
2022-09-23T01:36:42.680Z,501.82
2022-09-23T01:36:52.680Z,501.80
2022-09-23T01:37:02.681Z,501.83
2022-09-23T01:37:12.682Z,501.78
2022-09-23T01:37:22.681Z,501.82
2022-09-23T01:37:32.682Z,501.81
2022-09-23T01:37:42.684Z,501.83
2022-09-23T01:37:52.686Z,501.85
2022-09-23T01:38:02.685Z,501.87
2022-09-23T01:38:12.688Z,501.88
2022-09-23T01:38:22.688Z,501.88
2022-09-23T01:38:32.672Z,501.82
2022-09-23T01:38:42.670Z,501.83
2022-09-23T01:38:53.477Z,501.81
2022-09-23T01:39:02.693Z,501.84
2022-09-23T01:39:12.691Z,501.83
2022-09-23T01:39:22.675Z,501.81
2022-09-23T01:39:32.692Z,501.87
2022-09-23T01:39:42.693Z,501.87
2022-09-23T01:39:52.690Z,501.88
2022-09-23T01:40:02.863Z,501.86
2022-09-23T01:40:12.767Z,501.90
2022-09-23T01:40:22.769Z,501.92
2022-09-23T01:40:32.778Z,501.93
2022-09-23T01:40:42.758Z,501.89
2022-09-23T01:40:52.699Z,501.94
2022-09-23T01:41:02.696Z,501.95
2022-09-23T01:41:12.702Z,501.94
2022-09-23T01:41:22.703Z,501.91
2022-09-23T01:41:32.700Z,501.92
2022-09-23T01:41:42.701Z,502.01
2022-09-23T01:41:52.702Z,502.03
2022-09-23T01:42:02.705Z,502.06
2022-09-23T01:42:12.707Z,502.07
2022-09-23T01:42:22.704Z,502.10
2022-09-23T01:42:32.703Z,502.12
2022-09-23T01:42:42.709Z,502.15
2022-09-23T01:42:52.707Z,502.19
2022-09-23T01:43:02.709Z,502.20
2022-09-23T01:43:12.708Z,502.18
2022-09-23T01:43:22.710Z,502.19
2022-09-23T01:43:32.710Z,502.18
2022-09-23T01:43:42.712Z,502.18
2022-09-23T01:43:52.799Z,502.22
2022-09-23T01:44:02.714Z,502.24
2022-09-23T01:44:12.713Z,502.25
2022-09-23T01:44:22.713Z,502.27
2022-09-23T01:44:32.721Z,502.31
2022-09-23T01:44:42.714Z,502.25
2022-09-23T01:44:52.714Z,502.29
2022-09-23T01:45:02.717Z,502.32
2022-09-23T01:45:12.713Z,502.33
2022-09-23T01:45:22.700Z,502.31
2022-09-23T01:45:32.717Z,502.33
2022-09-23T01:45:42.719Z,502.36
2022-09-23T01:45:52.719Z,502.41
2022-09-23T01:46:02.718Z,502.37
2022-09-23T01:46:12.722Z,502.36
2022-09-23T01:46:22.732Z,502.43
2022-09-23T01:46:32.721Z,502.41
2022-09-23T01:46:42.725Z,502.43
2022-09-23T01:46:52.722Z,502.40
2022-09-23T01:47:02.723Z,502.42
2022-09-23T01:47:12.723Z,502.44
2022-09-23T01:47:22.708Z,502.42
2022-09-23T01:47:32.723Z,502.42
2022-09-23T01:47:42.724Z,502.39
2022-09-23T01:47:52.781Z,502.39
2022-09-23T01:48:02.841Z,502.40
2022-09-23T01:48:12.781Z,502.41
2022-09-23T01:48:22.744Z,502.39
2022-09-23T01:48:32.773Z,502.41
2022-09-23T01:48:42.735Z,502.42
2022-09-23T01:48:52.802Z,502.46
2022-09-23T01:49:02.736Z,502.54
2022-09-23T01:49:12.735Z,502.56
2022-09-23T01:49:22.734Z,502.56
2022-09-23T01:49:32.736Z,502.56
2022-09-23T01:49:42.732Z,502.57
2022-09-23T01:49:52.734Z,502.58
2022-09-23T01:50:02.721Z,502.57
2022-09-23T01:50:12.737Z,502.58
2022-09-23T01:50:22.738Z,502.59
2022-09-23T01:50:32.740Z,502.60
2022-09-23T01:50:42.738Z,502.57
2022-09-23T01:50:52.739Z,502.59
2022-09-23T01:51:02.742Z,502.61
2022-09-23T01:51:12.746Z,502.63
2022-09-23T01:51:22.744Z,502.67
2022-09-23T01:51:32.743Z,502.67
2022-09-23T01:51:42.743Z,502.70
2022-09-23T01:51:52.746Z,502.69
2022-09-23T01:52:02.748Z,502.72
2022-09-23T01:52:12.746Z,502.71
2022-09-23T01:52:22.750Z,502.71
2022-09-23T01:52:32.757Z,502.77
2022-09-23T01:52:42.750Z,502.81
2022-09-23T01:52:52.748Z,502.78
2022-09-23T01:53:02.758Z,502.85
2022-09-23T01:53:12.750Z,502.87
2022-09-23T01:53:22.751Z,502.86
2022-09-23T01:53:32.758Z,502.88
2022-09-23T01:53:42.752Z,502.88
2022-09-23T01:53:52.795Z,502.88
2022-09-23T01:54:02.760Z,502.82
2022-09-23T01:54:12.755Z,502.82
2022-09-23T01:54:22.754Z,502.85
2022-09-23T01:54:32.756Z,502.93
2022-09-23T01:54:42.755Z,502.96
2022-09-23T01:54:52.755Z,502.97
2022-09-23T01:55:02.758Z,502.99
2022-09-23T01:55:12.758Z,503.02
2022-09-23T01:55:22.759Z,503.02
2022-09-23T01:55:32.760Z,503.03
2022-09-23T01:55:42.762Z,503.02
2022-09-23T01:55:52.760Z,503.01
2022-09-23T01:56:02.762Z,503.06
2022-09-23T01:56:12.761Z,503.08
2022-09-23T01:56:22.762Z,503.04
2022-09-23T01:56:32.765Z,503.08
2022-09-23T01:56:42.765Z,503.11
2022-09-23T01:56:52.765Z,503.11
2022-09-23T01:57:02.768Z,503.10
2022-09-23T01:57:12.767Z,503.06
2022-09-23T01:57:22.768Z,503.12
2022-09-23T01:57:32.776Z,503.12
2022-09-23T01:57:42.773Z,503.16
2022-09-23T01:57:52.771Z,503.12
2022-09-23T01:58:02.774Z,503.13
2022-09-23T01:58:12.779Z,503.14
2022-09-23T01:58:22.799Z,503.10
2022-09-23T01:58:32.775Z,503.11
2022-09-23T01:58:42.776Z,503.13
2022-09-23T01:58:53.481Z,503.16
2022-09-23T01:59:02.780Z,503.24
2022-09-23T01:59:12.779Z,503.20
2022-09-23T01:59:22.777Z,503.19
2022-09-23T01:59:32.776Z,503.27
2022-09-23T01:59:42.779Z,503.26
2022-09-23T01:59:52.778Z,503.22
2022-09-23T02:00:02.780Z,503.28
2022-09-23T02:00:12.780Z,503.26
2022-09-23T02:00:22.781Z,503.28
2022-09-23T02:00:32.782Z,503.30
2022-09-23T02:00:42.782Z,503.33
2022-09-23T02:00:52.874Z,503.35
2022-09-23T02:01:02.843Z,503.44
2022-09-23T02:01:12.869Z,503.47
2022-09-23T02:01:22.881Z,503.50
2022-09-23T02:01:32.849Z,503.51
2022-09-23T02:01:42.864Z,503.46
2022-09-23T02:01:52.786Z,503.49
2022-09-23T02:02:02.838Z,503.49
2022-09-23T02:02:12.807Z,503.48
2022-09-23T02:02:22.827Z,503.58
2022-09-23T02:02:32.832Z,503.60
2022-09-23T02:02:42.811Z,503.53
2022-09-23T02:02:52.818Z,503.53
2022-09-23T02:03:02.792Z,503.54
2022-09-23T02:03:12.790Z,503.55
2022-09-23T02:03:22.793Z,503.54
2022-09-23T02:03:32.793Z,503.53
2022-09-23T02:03:42.797Z,503.57
2022-09-23T02:03:53.484Z,503.62
2022-09-23T02:04:02.811Z,503.57
2022-09-23T02:04:12.796Z,503.59
2022-09-23T02:04:22.798Z,503.59
2022-09-23T02:04:32.798Z,503.60
2022-09-23T02:04:42.802Z,503.58